sensor_id;sensor_type;location;lat;lon;timestamp;temperature;humidity
3980;DHT22;2004;52.452;13.120;2023-11-22T00:04:03;0.90;99.90
3980;DHT22;2004;52.452;13.120;2023-11-22T00:11:53;0.80;99.90
3980;DHT22;2004;52.452;13.120;2023-11-22T00:19:44;0.80;99.90
3980;DHT22;2004;52.452;13.120;2023-11-22T00:27:35;0.70;99.90
3980;DHT22;2004;52.452;13.120;2023-11-22T00:35:26;0.70;99.90
3980;DHT22;2004;52.452;13.120;2023-11-22T00:43:17;0.70;99.90
3980;DHT22;2004;52.452;13.120;2023-11-22T00:51:09;0.70;99.90
3980;DHT22;2004;52.452;13.120;2023-11-22T00:59:00;0.70;99.90
3980;DHT22;2004;52.452;13.120;2023-11-22T01:06:54;0.70;99.90
3980;DHT22;2004;52.452;13.120;2023-11-22T01:14:44;0.70;99.90
3980;DHT22;2004;52.452;13.120;2023-11-22T01:22:35;0.60;99.90
3980;DHT22;2004;52.452;13.120;2023-11-22T01:30:25;0.50;99.90
3980;DHT22;2004;52.452;13.120;2023-11-22T01:38:18;0.50;99.90
3980;DHT22;2004;52.452;13.120;2023-11-22T01:46:10;0.50;99.90
3980;DHT22;2004;52.452;13.120;2023-11-22T01:54:09;0.50;99.90
3980;DHT22;2004;52.452;13.120;2023-11-22T02:02:01;0.50;99.90
3980;DHT22;2004;52.452;13.120;2023-11-22T02:09:52;0.40;99.90
3980;DHT22;2004;52.452;13.120;2023-11-22T02:17:43;0.40;99.90
3980;DHT22;2004;52.452;13.120;2023-11-22T02:25:34;0.40;99.90
3980;DHT22;2004;52.452;13.120;2023-11-22T02:33:24;0.30;99.90
3980;DHT22;2004;52.452;13.120;2023-11-22T02:41:15;0.20;99.90
3980;DHT22;2004;52.452;13.120;2023-11-22T02:49:05;0.20;99.90
3980;DHT22;2004;52.452;13.120;2023-11-22T02:56:56;0.10;99.90
3980;DHT22;2004;52.452;13.120;2023-11-22T03:04:47;0.10;99.90
3980;DHT22;2004;52.452;13.120;2023-11-22T03:12:37;0.10;99.90
3980;DHT22;2004;52.452;13.120;2023-11-22T03:20:28;0.00;99.90
3980;DHT22;2004;52.452;13.120;2023-11-22T03:28:18;0.00;99.90
3980;DHT22;2004;52.452;13.120;2023-11-22T03:36:09;-0.10;99.90
3980;DHT22;2004;52.452;13.120;2023-11-22T03:44:01;-0.10;99.90
3980;DHT22;2004;52.452;13.120;2023-11-22T03:51:51;-0.10;99.90
3980;DHT22;2004;52.452;13.120;2023-11-22T03:59:42;-0.10;99.90
3980;DHT22;2004;52.452;13.120;2023-11-22T04:07:33;-0.20;99.90
3980;DHT22;2004;52.452;13.120;2023-11-22T04:15:24;-0.30;99.90
3980;DHT22;2004;52.452;13.120;2023-11-22T04:23:16;-0.40;99.90
3980;DHT22;2004;52.452;13.120;2023-11-22T04:31:07;-0.40;99.90
3980;DHT22;2004;52.452;13.120;2023-11-22T04:38:59;-0.50;99.90
3980;DHT22;2004;52.452;13.120;2023-11-22T04:46:50;-0.50;99.90
3980;DHT22;2004;52.452;13.120;2023-11-22T04:54:41;-0.60;99.90
3980;DHT22;2004;52.452;13.120;2023-11-22T05:02:32;-0.60;99.90
3980;DHT22;2004;52.452;13.120;2023-11-22T05:10:22;-0.60;99.90
3980;DHT22;2004;52.452;13.120;2023-11-22T05:18:13;-0.70;99.90
3980;DHT22;2004;52.452;13.120;2023-11-22T05:26:05;-0.70;99.90
3980;DHT22;2004;52.452;13.120;2023-11-22T05:33:55;-0.80;99.90
3980;DHT22;2004;52.452;13.120;2023-11-22T05:41:46;-0.80;99.90
3980;DHT22;2004;52.452;13.120;2023-11-22T05:49:36;-0.80;99.90
3980;DHT22;2004;52.452;13.120;2023-11-22T05:57:27;-0.90;99.90
3980;DHT22;2004;52.452;13.120;2023-11-22T06:05:17;-0.90;99.90
3980;DHT22;2004;52.452;13.120;2023-11-22T06:13:08;-1.00;99.90
3980;DHT22;2004;52.452;13.120;2023-11-22T06:21:00;-1.00;99.90
3980;DHT22;2004;52.452;13.120;2023-11-22T06:28:51;-1.10;99.90
3980;DHT22;2004;52.452;13.120;2023-11-22T06:36:41;-1.10;99.90
3980;DHT22;2004;52.452;13.120;2023-11-22T06:44:32;-1.20;99.90
3980;DHT22;2004;52.452;13.120;2023-11-22T06:52:22;-1.20;99.90
3980;DHT22;2004;52.452;13.120;2023-11-22T07:00:13;-1.30;99.90
3980;DHT22;2004;52.452;13.120;2023-11-22T07:08:05;-1.30;99.90
3980;DHT22;2004;52.452;13.120;2023-11-22T07:15:55;-1.40;99.90
3980;DHT22;2004;52.452;13.120;2023-11-22T07:23:47;-1.40;99.90
3980;DHT22;2004;52.452;13.120;2023-11-22T07:31:38;-1.40;99.90
3980;DHT22;2004;52.452;13.120;2023-11-22T07:39:29;-1.40;99.90
3980;DHT22;2004;52.452;13.120;2023-11-22T07:47:20;-1.40;99.90
3980;DHT22;2004;52.452;13.120;2023-11-22T07:55:11;-1.40;99.90
3980;DHT22;2004;52.452;13.120;2023-11-22T08:03:02;-1.30;99.90
3980;DHT22;2004;52.452;13.120;2023-11-22T08:10:53;-1.20;99.90
3980;DHT22;2004;52.452;13.120;2023-11-22T08:18:44;-1.20;99.90
3980;DHT22;2004;52.452;13.120;2023-11-22T08:26:36;-1.10;99.90
3980;DHT22;2004;52.452;13.120;2023-11-22T08:34:29;-1.00;99.90
3980;DHT22;2004;52.452;13.120;2023-11-22T08:42:20;-0.90;99.90
3980;DHT22;2004;52.452;13.120;2023-11-22T08:50:11;-0.90;99.90
3980;DHT22;2004;52.452;13.120;2023-11-22T08:58:01;-0.70;99.90
3980;DHT22;2004;52.452;13.120;2023-11-22T09:05:52;-0.40;99.90
3980;DHT22;2004;52.452;13.120;2023-11-22T09:13:44;-0.10;99.90
3980;DHT22;2004;52.452;13.120;2023-11-22T09:21:35;0.10;99.90
3980;DHT22;2004;52.452;13.120;2023-11-22T09:29:26;0.20;99.90
3980;DHT22;2004;52.452;13.120;2023-11-22T09:37:16;0.20;99.90
3980;DHT22;2004;52.452;13.120;2023-11-22T09:45:08;0.20;99.90
3980;DHT22;2004;52.452;13.120;2023-11-22T09:53:00;0.30;99.90
3980;DHT22;2004;52.452;13.120;2023-11-22T10:00:52;0.40;99.90
3980;DHT22;2004;52.452;13.120;2023-11-22T10:08:44;0.50;99.90
3980;DHT22;2004;52.452;13.120;2023-11-22T10:16:38;0.50;99.90
3980;DHT22;2004;52.452;13.120;2023-11-22T10:24:31;0.60;99.90
3980;DHT22;2004;52.452;13.120;2023-11-22T10:32:23;0.70;99.90
3980;DHT22;2004;52.452;13.120;2023-11-22T10:40:16;0.80;99.90
3980;DHT22;2004;52.452;13.120;2023-11-22T10:48:07;0.80;99.90
3980;DHT22;2004;52.452;13.120;2023-11-22T10:56:14;0.90;99.90
3980;DHT22;2004;52.452;13.120;2023-11-22T11:04:09;1.00;99.90
3980;DHT22;2004;52.452;13.120;2023-11-22T11:12:02;1.10;99.90
3980;DHT22;2004;52.452;13.120;2023-11-22T11:19:53;1.20;99.90
3980;DHT22;2004;52.452;13.120;2023-11-22T11:27:45;1.30;99.90
3980;DHT22;2004;52.452;13.120;2023-11-22T11:35:43;1.40;99.90
3980;DHT22;2004;52.452;13.120;2023-11-22T11:43:45;1.40;99.90
3980;DHT22;2004;52.452;13.120;2023-11-22T11:51:38;1.50;99.90
3980;DHT22;2004;52.452;13.120;2023-11-22T11:59:29;1.60;99.90
3980;DHT22;2004;52.452;13.120;2023-11-22T12:07:20;1.60;99.90
3980;DHT22;2004;52.452;13.120;2023-11-22T12:15:11;1.70;99.90
3980;DHT22;2004;52.452;13.120;2023-11-22T12:23:01;1.70;99.90
3980;DHT22;2004;52.452;13.120;2023-11-22T12:30:52;1.70;99.90
3980;DHT22;2004;52.452;13.120;2023-11-22T12:38:43;1.80;99.90
3980;DHT22;2004;52.452;13.120;2023-11-22T12:46:48;1.90;99.90
3980;DHT22;2004;52.452;13.120;2023-11-22T12:54:40;1.90;99.90
3980;DHT22;2004;52.452;13.120;2023-11-22T13:02:30;2.00;99.90
3980;DHT22;2004;52.452;13.120;2023-11-22T13:10:21;2.10;99.90
3980;DHT22;2004;52.452;13.120;2023-11-22T13:18:16;2.10;99.90
3980;DHT22;2004;52.452;13.120;2023-11-22T13:26:07;2.10;99.90
3980;DHT22;2004;52.452;13.120;2023-11-22T13:34:03;2.10;99.90
3980;DHT22;2004;52.452;13.120;2023-11-22T13:41:54;2.20;99.90
3980;DHT22;2004;52.452;13.120;2023-11-22T13:49:44;2.10;99.90
3980;DHT22;2004;52.452;13.120;2023-11-22T13:57:35;2.10;99.90
3980;DHT22;2004;52.452;13.120;2023-11-22T14:05:26;2.10;99.90
3980;DHT22;2004;52.452;13.120;2023-11-22T14:13:17;2.10;99.90
3980;DHT22;2004;52.452;13.120;2023-11-22T14:21:09;2.00;99.90
3980;DHT22;2004;52.452;13.120;2023-11-22T14:29:01;2.00;99.90
3980;DHT22;2004;52.452;13.120;2023-11-22T14:36:51;1.90;99.90
3980;DHT22;2004;52.452;13.120;2023-11-22T14:44:42;1.80;99.90
3980;DHT22;2004;52.452;13.120;2023-11-22T14:52:33;1.70;99.90
3980;DHT22;2004;52.452;13.120;2023-11-22T15:00:25;1.70;99.90
3980;DHT22;2004;52.452;13.120;2023-11-22T15:08:15;1.60;99.90
3980;DHT22;2004;52.452;13.120;2023-11-22T15:16:07;1.60;99.90
3980;DHT22;2004;52.452;13.120;2023-11-22T15:23:57;1.50;99.90
3980;DHT22;2004;52.452;13.120;2023-11-22T15:31:48;1.50;99.90
3980;DHT22;2004;52.452;13.120;2023-11-22T15:39:39;1.40;99.90
3980;DHT22;2004;52.452;13.120;2023-11-22T15:47:30;1.40;99.90
3980;DHT22;2004;52.452;13.120;2023-11-22T15:55:20;1.40;99.90
3980;DHT22;2004;52.452;13.120;2023-11-22T16:03:11;1.40;99.90
3980;DHT22;2004;52.452;13.120;2023-11-22T16:11:08;1.40;99.90
3980;DHT22;2004;52.452;13.120;2023-11-22T16:18:59;1.40;99.90
3980;DHT22;2004;52.452;13.120;2023-11-22T16:26:50;1.40;99.90
3980;DHT22;2004;52.452;13.120;2023-11-22T16:34:41;1.40;99.90
3980;DHT22;2004;52.452;13.120;2023-11-22T16:42:31;1.40;99.90
3980;DHT22;2004;52.452;13.120;2023-11-22T16:50:26;1.40;99.90
3980;DHT22;2004;52.452;13.120;2023-11-22T16:58:16;1.40;99.90
3980;DHT22;2004;52.452;13.120;2023-11-22T17:06:08;1.40;99.90
3980;DHT22;2004;52.452;13.120;2023-11-22T17:13:59;1.40;99.90
3980;DHT22;2004;52.452;13.120;2023-11-22T17:21:50;1.50;99.90
3980;DHT22;2004;52.452;13.120;2023-11-22T17:29:40;1.50;99.90
3980;DHT22;2004;52.452;13.120;2023-11-22T17:37:31;1.40;99.90
3980;DHT22;2004;52.452;13.120;2023-11-22T17:45:22;1.40;99.90
3980;DHT22;2004;52.452;13.120;2023-11-22T17:53:12;1.40;99.90
3980;DHT22;2004;52.452;13.120;2023-11-22T18:01:03;1.40;99.90
3980;DHT22;2004;52.452;13.120;2023-11-22T18:08:53;1.40;99.90
3980;DHT22;2004;52.452;13.120;2023-11-22T18:16:47;1.30;99.90
3980;DHT22;2004;52.452;13.120;2023-11-22T18:24:38;1.30;99.90
3980;DHT22;2004;52.452;13.120;2023-11-22T18:32:28;1.20;99.90
3980;DHT22;2004;52.452;13.120;2023-11-22T18:40:19;1.20;99.90
3980;DHT22;2004;52.452;13.120;2023-11-22T18:48:11;1.10;99.90
3980;DHT22;2004;52.452;13.120;2023-11-22T18:56:02;1.10;99.90
3980;DHT22;2004;52.452;13.120;2023-11-22T19:03:52;1.10;99.90
3980;DHT22;2004;52.452;13.120;2023-11-22T19:11:43;1.10;99.90
3980;DHT22;2004;52.452;13.120;2023-11-22T19:19:35;1.00;99.90
3980;DHT22;2004;52.452;13.120;2023-11-22T19:27:25;1.00;99.90
3980;DHT22;2004;52.452;13.120;2023-11-22T19:35:17;1.00;99.90
3980;DHT22;2004;52.452;13.120;2023-11-22T19:43:08;1.00;99.90
3980;DHT22;2004;52.452;13.120;2023-11-22T19:51:00;0.90;99.90
3980;DHT22;2004;52.452;13.120;2023-11-22T19:58:51;0.90;99.90
3980;DHT22;2004;52.452;13.120;2023-11-22T20:06:41;0.80;99.90
3980;DHT22;2004;52.452;13.120;2023-11-22T20:14:32;0.80;99.90
3980;DHT22;2004;52.452;13.120;2023-11-22T20:22:22;0.80;99.90
3980;DHT22;2004;52.452;13.120;2023-11-22T20:30:13;0.80;99.90
3980;DHT22;2004;52.452;13.120;2023-11-22T20:38:04;0.80;99.90
3980;DHT22;2004;52.452;13.120;2023-11-22T20:45:54;0.80;99.90
3980;DHT22;2004;52.452;13.120;2023-11-22T20:53:47;0.80;99.90
3980;DHT22;2004;52.452;13.120;2023-11-22T21:01:38;0.80;99.90
3980;DHT22;2004;52.452;13.120;2023-11-22T21:09:28;0.80;99.90
3980;DHT22;2004;52.452;13.120;2023-11-22T21:17:19;0.80;99.90
3980;DHT22;2004;52.452;13.120;2023-11-22T21:25:10;0.90;99.90
3980;DHT22;2004;52.452;13.120;2023-11-22T21:33:00;0.90;99.90
3980;DHT22;2004;52.452;13.120;2023-11-22T21:40:51;0.90;99.90
3980;DHT22;2004;52.452;13.120;2023-11-22T21:48:41;0.90;99.90
3980;DHT22;2004;52.452;13.120;2023-11-22T21:56:32;0.90;99.90
3980;DHT22;2004;52.452;13.120;2023-11-22T22:04:23;0.90;99.90
3980;DHT22;2004;52.452;13.120;2023-11-22T22:12:14;1.00;99.90
3980;DHT22;2004;52.452;13.120;2023-11-22T22:20:05;1.00;99.90
3980;DHT22;2004;52.452;13.120;2023-11-22T22:27:57;1.00;99.90
3980;DHT22;2004;52.452;13.120;2023-11-22T22:35:47;1.10;99.90
3980;DHT22;2004;52.452;13.120;2023-11-22T22:43:38;1.20;99.90
3980;DHT22;2004;52.452;13.120;2023-11-22T22:51:29;1.20;99.90
3980;DHT22;2004;52.452;13.120;2023-11-22T22:59:19;1.30;99.90
3980;DHT22;2004;52.452;13.120;2023-11-22T23:07:10;1.30;99.90
3980;DHT22;2004;52.452;13.120;2023-11-22T23:15:04;1.40;99.90
3980;DHT22;2004;52.452;13.120;2023-11-22T23:22:55;1.40;99.90
3980;DHT22;2004;52.452;13.120;2023-11-22T23:30:45;1.50;99.90
3980;DHT22;2004;52.452;13.120;2023-11-22T23:38:36;1.50;99.90
3980;DHT22;2004;52.452;13.120;2023-11-22T23:46:28;1.60;99.90
3980;DHT22;2004;52.452;13.120;2023-11-22T23:54:22;1.70;99.90
